ARKANSAS RIVER NAVIGATION REPORT
  LITTLE ROCK DISTRICT - U.S. ARMY CORPS OF ENGINEERS
  GENERATED: 22 MAY 2018 @  5:05
 
  NOTE: These data are not guaranteed to be valid or correct.
        RELEASES AND FLOWS ARE IN THOUSANDS OF CFS
  _____________________________________________________________________________
 
                  21MAY     21MAY      21MAY           22MAY          22MAY
                  @1200     @2400     AVERAGE      LATEST OBSERVED    PRECIP.
                  HOURS     HOURS      FLOW         DATA AND TIME     (7A-7A)
  _____________________________________________________________________________
 
  LD13 HW-ELEV    391.67    391.90                391.77  @   4:00      0.00
  LD13 TW-ELEV    371.65    372.88                373.11  @   4:00
  LD13 RELEASE       .6      26.8      17.5        26.6   @   4:00
 
  OZA.L&D HW-ELEV 371.92    371.86                372.15  @   4:00      0.00
  OZA.L&D TW-ELEV 338.19    338.58                338.61  @   4:00
  OZA.L&D RELEASE   7.7      18.6      13.2        18.6   @   4:00
 
  DRD.L&D HW-ELEV 338.03    337.94                338.01  @   4:00       .07
  DRD.L&D TW-ELEV 286.15    286.50                285.94  @   4:00
  DRD.L&D RELEASE  16.2      11.2      13.3        10.9   @   4:00
 
  LD09 HW-ELEV    285.38    285.86                285.36  @   4:00       .04
  LD09 TW-ELEV    265.66    266.33                266.34  @   4:00
  LD09 RELEASE     13.0      22.7      13.2        22.7   @   4:00
 
  LD08 HW-ELEV    265.25    265.28                265.28  @   4:00       .05
  LD08 TW-ELEV    249.77    250.90                250.97  @   4:00
  LD08 RELEASE     13.8      24.6      12.7        24.5   @   4:00
 
  LD07 HW-ELEV    249.12    249.26                249.26  @   4:00       .09
  LD07 TW-ELEV    231.00    231.22                231.33  @   4:00
  LD07 RELEASE      6.3      21.8      10.6        21.8   @   4:00
 
  LD06 HW-ELEV    231.05    231.02                231.21  @   4:00       .22
  LD06 TW-ELEV    213.51    214.15                214.29  @   4:00
  LD06 RELEASE      4.6      14.3       9.9        22.6   @   4:00
 
  LD05 HW-ELEV    213.77    213.93                213.86  @   4:00       .13
  LD05 TW-ELEV    195.72    195.93                196.28  @   4:00
  LD05 RELEASE      5.1      16.9      10.0        21.6   @   4:00
 
  LD04 HW-ELEV    196.13    196.11                196.19  @   4:00       .26
  LD04 TW-ELEV    182.46    182.39                182.79  @   4:00
  LD04 RELEASE      5.4      13.8      10.5        23.3   @   4:00
 
  LD03 HW-ELEV    182.44    182.04                182.27  @   4:00      1.23
  LD03 TW-ELEV    163.38    163.95                163.94  @   4:00
  LD03 RELEASE     11.1      16.0      10.4        16.1   @   4:00
 
  L02 HW-ELEV     162.99    163.10                156.61  @   4:00       .02
 
  D02 HW-ELEV     162.80    162.91                162.85  @   4:00       .02
  D02 TW-ELEV     126.70    127.94                128.12  @   4:00
  D02 RELEASE       7.1      10.7       5.9        10.6   @   4:00
 
  L01 TW-ELEV     136.33    136.44                136.52  @   4:00       .01
 
  MPLD HW-ELEV    135.11    135.28                135.42  @   4:00       .01	
  MPLD TW-ELEV    134.85    135.02                135.18  @   4:00
 
  WREC DIFF.        1.22      1.16                  1.10
  CLARENDON FLOW   31.67     31.49     31.71       31.41  @   4:00
  HELENA STAGE     23.39     23.99                 24.22  @   4:00
  CAIRO STAGE      32.87     33.18                 33.24  @   4:00
  _____________________________________________________________________________